Terminal Aerodrome Forecast
Issued by NWS

Home | Current Version | Previous Version | Text Only | Print | Product List | Glossary On
Versions: 1 2 3 4 5 6 7 8 9 10 11 12 13 14 15
000
FTUS41 KAKQ 290200 AAA
TAFPHF
TAF AMD
KPHF 290202Z 2902/2924 27005KT P6SM BKN015 OVC060
      TEMPO 2902/2904 6SM -DZ BR OVC009
     FM290700 01006KT 4SM -RA BR BKN020 OVC050
     FM291000 03011KT 3SM -RA BR OVC008
     FM291700 04011KT 5SM -RA BR OVC010=

USA.gov is the U.S. government's official web portal to all federal, state and local government web resources and services.